createdAt,value
2016-11-24T00:00:12.386Z,0
2016-11-24T00:01:22.112Z,0
2016-11-24T00:02:32.470Z,0
2016-11-24T00:03:42.818Z,0
2016-11-24T00:04:53.177Z,0
2016-11-24T00:06:03.531Z,0
2016-11-24T00:07:13.583Z,0
2016-11-24T00:08:23.629Z,0
2016-11-24T00:09:33.686Z,0
2016-11-24T00:10:44.038Z,0
2016-11-24T00:11:54.385Z,0
2016-11-24T00:13:04.411Z,0
2016-11-24T00:14:14.955Z,0
2016-11-24T00:15:24.678Z,0
2016-11-24T00:16:34.443Z,0
2016-11-24T00:17:44.796Z,0
2016-11-24T00:18:54.850Z,0
2016-11-24T00:20:05.205Z,0
2016-11-24T00:21:15.561Z,0
2016-11-24T00:22:25.625Z,0
2016-11-24T00:23:35.948Z,0
2016-11-24T00:24:45.983Z,0
2016-11-24T00:25:56.319Z,0
2016-11-24T00:27:06.672Z,0
2016-11-24T00:28:16.398Z,0
2016-11-24T00:29:26.137Z,0
2016-11-24T00:30:36.173Z,0
2016-11-24T00:31:46.213Z,0
2016-11-24T00:32:56.583Z,0
2016-11-24T00:34:06.673Z,0
2016-11-24T00:35:17.023Z,0
2016-11-24T00:36:27.389Z,0
2016-11-24T00:37:37.776Z,0
2016-11-24T00:38:48.119Z,0
2016-11-24T00:39:58.475Z,0
2016-11-24T00:41:08.837Z,0
2016-11-24T00:42:18.897Z,0
2016-11-24T00:43:28.940Z,0
2016-11-24T00:44:39.295Z,0
2016-11-24T00:45:49.698Z,0
2016-11-24T00:46:59.740Z,0
2016-11-24T00:48:09.793Z,0
2016-11-24T00:49:19.545Z,0
2016-11-24T00:50:29.589Z,0
2016-11-24T00:51:39.629Z,0
2016-11-24T00:52:49.978Z,0
2016-11-24T00:53:59.704Z,0
2016-11-24T00:55:10.046Z,0
2016-11-24T00:56:20.389Z,0
2016-11-24T00:57:30.475Z,0
2016-11-24T00:58:40.813Z,0
2016-11-24T00:59:50.842Z,0
2016-11-24T01:01:01.185Z,0
2016-11-24T01:02:11.549Z,0
2016-11-24T01:03:21.584Z,0
2016-11-24T01:04:31.919Z,0
2016-11-24T01:05:41.628Z,0
2016-11-24T01:06:51.667Z,0
2016-11-24T01:08:01.716Z,0
2016-11-24T01:09:12.067Z,0
2016-11-24T01:10:22.408Z,0
2016-11-24T01:11:32.765Z,0
2016-11-24T01:12:43.116Z,0
2016-11-24T01:13:53.474Z,0
2016-11-24T01:15:03.549Z,0
2016-11-24T01:16:13.894Z,0
2016-11-24T01:17:24.239Z,0
2016-11-24T01:18:33.961Z,0
2016-11-24T01:19:44.314Z,0
2016-11-24T01:20:54.355Z,0
2016-11-24T01:22:04.425Z,0
2016-11-24T01:23:14.783Z,0
2016-11-24T01:24:24.852Z,0
2016-11-24T01:25:35.198Z,0
2016-11-24T01:26:44.927Z,0
2016-11-24T01:27:54.950Z,0
2016-11-24T01:29:04.997Z,0
2016-11-24T01:30:14.421Z,0
2016-11-24T01:31:24.771Z,0
2016-11-24T01:32:35.115Z,0
2016-11-24T01:33:45.458Z,0
2016-11-24T01:34:55.807Z,0
2016-11-24T01:36:05.560Z,0
2016-11-24T01:37:15.284Z,0
2016-11-24T01:38:25.692Z,0
2016-11-24T01:39:35.407Z,0
2016-11-24T01:40:45.773Z,0
2016-11-24T01:41:55.193Z,0
2016-11-24T01:43:05.548Z,0
2016-11-24T01:44:15.899Z,0
2016-11-24T01:45:25.935Z,0
2016-11-24T01:46:36.313Z,0
2016-11-24T01:47:46.354Z,0
2016-11-24T01:48:56.694Z,0
2016-11-24T01:50:07.102Z,0
2016-11-24T01:51:17.128Z,0
2016-11-24T01:52:27.172Z,0
2016-11-24T01:53:37.528Z,0
2016-11-24T01:54:47.878Z,0
2016-11-24T01:55:57.897Z,0
2016-11-24T01:57:08.257Z,0
2016-11-24T01:58:17.967Z,0
2016-11-24T01:59:28.047Z,0
2016-11-24T02:00:38.398Z,0
2016-11-24T02:01:48.724Z,0
2016-11-24T02:02:59.086Z,0
2016-11-24T02:04:08.819Z,0
2016-11-24T02:05:18.849Z,0
2016-11-24T02:06:28.936Z,0
2016-11-24T02:07:38.982Z,0
2016-11-24T02:08:49.332Z,0
2016-11-24T02:09:59.685Z,0
2016-11-24T02:11:09.090Z,0
2016-11-24T02:12:19.439Z,0
2016-11-24T02:13:29.472Z,0
2016-11-24T02:14:39.496Z,0
2016-11-24T02:15:49.220Z,0
2016-11-24T02:16:59.552Z,0
2016-11-24T02:18:09.269Z,0
2016-11-24T02:19:19.618Z,0
2016-11-24T02:20:29.346Z,0
2016-11-24T02:21:39.695Z,0
2016-11-24T02:22:50.039Z,0
2016-11-24T02:24:00.098Z,0
2016-11-24T02:25:10.456Z,0
2016-11-24T02:26:20.800Z,0
2016-11-24T02:27:30.843Z,0
2016-11-24T02:28:41.227Z,0
2016-11-24T02:29:50.948Z,0
2016-11-24T02:31:01.293Z,0
2016-11-24T02:32:11.657Z,0
2016-11-24T02:33:21.690Z,0
2016-11-24T02:34:32.027Z,0
2016-11-24T02:35:42.383Z,0
2016-11-24T02:36:52.737Z,0
2016-11-24T02:38:02.801Z,0
2016-11-24T02:39:13.129Z,0
2016-11-24T02:40:22.538Z,0
2016-11-24T02:41:32.883Z,0
2016-11-24T02:42:43.248Z,0
2016-11-24T02:43:52.974Z,0
2016-11-24T02:45:02.992Z,0
2016-11-24T02:46:12.726Z,0
2016-11-24T02:47:22.759Z,0
2016-11-24T02:48:33.108Z,0
2016-11-24T02:49:43.140Z,0
2016-11-24T02:50:53.484Z,0
2016-11-24T02:52:03.555Z,0
2016-11-24T02:53:13.895Z,0
2016-11-24T02:54:23.928Z,0
2016-11-24T02:55:33.642Z,0
2016-11-24T02:56:43.986Z,0
2016-11-24T02:57:52.767Z,0
2016-11-24T02:59:03.109Z,0
2016-11-24T03:00:13.470Z,0
2016-11-24T03:01:23.491Z,0
2016-11-24T03:32:45.264Z,0
2016-11-24T03:33:55.585Z,0
2016-11-24T03:35:05.928Z,0
2016-11-24T03:36:16.302Z,0
2016-11-24T03:37:26.641Z,0
2016-11-24T03:38:36.657Z,0
2016-11-24T03:39:47.016Z,0
2016-11-24T03:40:57.336Z,0
2016-11-24T03:42:07.945Z,0
2016-11-24T03:43:18.279Z,0
2016-11-24T03:44:28.002Z,0
2016-11-24T03:45:38.358Z,0
2016-11-24T03:46:48.380Z,0
2016-11-24T03:47:58.405Z,0
2016-11-24T03:49:08.741Z,0
2016-11-24T03:50:19.094Z,0
2016-11-24T03:51:29.440Z,0
2016-11-24T03:52:39.171Z,0
2016-11-24T03:53:49.130Z,0
2016-11-24T03:54:59.484Z,0
2016-11-24T03:56:08.566Z,0
2016-11-24T03:57:18.912Z,0
2016-11-24T03:58:28.955Z,0
2016-11-24T03:59:39.030Z,0
2016-11-24T04:00:49.374Z,0
2016-11-24T04:01:59.970Z,0
2016-11-24T04:03:10.313Z,0
2016-11-24T04:04:20.382Z,0
2016-11-24T04:05:30.756Z,0
2016-11-24T04:06:40.830Z,0
2016-11-24T04:07:51.163Z,0
2016-11-24T04:09:01.181Z,0
2016-11-24T04:10:11.526Z,0
2016-11-24T04:11:21.572Z,0
2016-11-24T04:12:30.976Z,0
2016-11-24T04:13:41.022Z,0
2016-11-24T04:14:51.056Z,0
2016-11-24T04:16:01.437Z,0
2016-11-24T04:17:11.463Z,0
2016-11-24T04:18:21.516Z,0
2016-11-24T04:19:31.578Z,0
2016-11-24T04:20:41.921Z,0
2016-11-24T04:21:52.192Z,0
2016-11-24T04:23:02.552Z,0
2016-11-24T04:24:12.607Z,0
2016-11-24T04:25:22.964Z,0
2016-11-24T04:26:32.682Z,0
2016-11-24T04:27:42.714Z,0
2016-11-24T04:28:52.795Z,0
2016-11-24T04:30:02.844Z,0
2016-11-24T04:31:13.178Z,0
2016-11-24T04:32:23.521Z,0
2016-11-24T04:33:33.566Z,0
2016-11-24T04:34:43.599Z,0
2016-11-24T04:35:53.623Z,0
2016-11-24T04:37:03.356Z,0
2016-11-24T04:38:13.142Z,0
2016-11-24T04:39:23.488Z,0
2016-11-24T04:40:33.829Z,0
2016-11-24T04:41:43.879Z,0
2016-11-24T04:42:53.931Z,0
2016-11-24T04:44:03.660Z,0
2016-11-24T04:45:13.388Z,0
2016-11-24T04:46:23.110Z,0
2016-11-24T04:47:33.456Z,0
2016-11-24T04:48:43.801Z,0
2016-11-24T04:49:53.839Z,0
2016-11-24T04:51:04.206Z,0
2016-11-24T04:52:13.942Z,0
2016-11-24T04:53:23.979Z,0
2016-11-24T04:54:34.012Z,0
2016-11-24T04:55:44.034Z,0
2016-11-24T04:56:54.063Z,0
2016-11-24T04:58:04.096Z,0
2016-11-24T04:59:14.122Z,0
2016-11-24T05:00:24.161Z,0
2016-11-24T05:01:33.878Z,0
2016-11-24T05:02:44.234Z,0
2016-11-24T05:03:53.636Z,0
2016-11-24T05:05:03.344Z,0
2016-11-24T05:06:13.380Z,0
2016-11-24T05:07:23.740Z,0
2016-11-24T05:08:33.781Z,0
2016-11-24T05:09:43.192Z,0
2016-11-24T05:10:53.579Z,0
2016-11-24T05:12:03.639Z,0
2016-11-24T05:13:13.684Z,0
2016-11-24T05:14:23.720Z,0
2016-11-24T05:15:34.066Z,0
2016-11-24T05:16:44.428Z,0
2016-11-24T05:17:54.769Z,0
2016-11-24T05:19:05.116Z,0
2016-11-24T05:20:15.142Z,0
2016-11-24T05:21:25.491Z,0
2016-11-24T05:22:35.215Z,0
2016-11-24T05:23:45.242Z,0
2016-11-24T05:24:54.966Z,0
2016-11-24T05:26:04.396Z,0
2016-11-24T05:27:14.107Z,0
2016-11-24T05:28:24.153Z,0
2016-11-24T05:29:34.491Z,0
2016-11-24T05:30:44.212Z,0
2016-11-24T05:31:54.557Z,0
2016-11-24T05:33:04.906Z,0
2016-11-24T05:34:14.630Z,0
2016-11-24T05:35:24.691Z,0
2016-11-24T05:36:34.105Z,0
2016-11-24T05:37:44.462Z,0
2016-11-24T05:38:53.870Z,0
2016-11-24T05:40:03.947Z,0
2016-11-24T05:41:14.283Z,0
2016-11-24T05:42:24.318Z,0
2016-11-24T05:43:34.576Z,0
2016-11-24T05:44:44.628Z,0
2016-11-24T05:45:54.672Z,0
2016-11-24T05:47:04.757Z,0
2016-11-24T05:48:15.088Z,0
2016-11-24T05:49:24.816Z,0
2016-11-24T05:50:35.156Z,0
2016-11-24T05:51:45.212Z,0
2016-11-24T05:52:55.307Z,0
2016-11-24T05:54:05.055Z,0
2016-11-24T05:55:15.407Z,0
2016-11-24T05:56:25.468Z,0
2016-11-24T05:57:35.516Z,0
2016-11-24T05:58:45.547Z,0
2016-11-24T05:59:55.568Z,0
2016-11-24T06:01:05.593Z,0
2016-11-24T06:02:15.022Z,0
2016-11-24T06:03:25.376Z,0
2016-11-24T06:04:35.404Z,0
2016-11-24T06:05:45.487Z,0
2016-11-24T06:06:55.545Z,0
2016-11-24T06:08:05.924Z,0
2016-11-24T06:09:15.964Z,0
2016-11-24T06:10:25.687Z,0
2016-11-24T06:11:36.067Z,0
2016-11-24T06:12:46.106Z,0
2016-11-24T06:13:56.476Z,0
2016-11-24T06:15:06.832Z,0
2016-11-24T06:16:17.180Z,0
2016-11-24T06:17:27.526Z,0
2016-11-24T06:18:37.871Z,0
2016-11-24T06:19:47.589Z,0
2016-11-24T06:20:57.926Z,0
2016-11-24T06:22:07.647Z,0
2016-11-24T06:23:17.663Z,0
2016-11-24T06:24:27.370Z,0
2016-11-24T06:25:37.723Z,0
2016-11-24T06:26:48.077Z,0
2016-11-24T06:27:58.434Z,0
2016-11-24T06:29:08.798Z,0
2016-11-24T06:30:19.149Z,0
2016-11-24T06:31:28.880Z,0
2016-11-24T06:32:38.917Z,0
2016-11-24T06:33:48.929Z,0
2016-11-24T06:34:59.271Z,0
2016-11-24T06:36:09.610Z,5
2016-11-24T06:37:19.337Z,5
2016-11-24T06:38:29.390Z,5
2016-11-24T06:39:39.750Z,5
2016-11-24T06:40:50.103Z,5
2016-11-24T06:41:59.827Z,5
2016-11-24T06:43:09.551Z,5
2016-11-24T06:44:19.907Z,5
2016-11-24T06:45:29.952Z,5
2016-11-24T06:46:39.684Z,5
2016-11-24T06:47:49.735Z,5
2016-11-24T06:49:00.097Z,5
2016-11-24T06:50:09.508Z,5
2016-11-24T06:51:19.545Z,5
2016-11-24T06:52:29.888Z,5
2016-11-24T06:53:40.244Z,5
2016-11-24T06:54:50.276Z,5
2016-11-24T06:56:00.632Z,5
2016-11-24T06:57:10.979Z,10
2016-11-24T06:58:21.008Z,10
2016-11-24T06:59:31.355Z,10
2016-11-24T07:00:41.716Z,10
2016-11-24T07:01:52.055Z,10
2016-11-24T07:03:02.403Z,10
2016-11-24T07:04:12.752Z,10
2016-11-24T07:05:23.108Z,10
2016-11-24T07:06:33.138Z,10
2016-11-24T07:07:43.160Z,10
2016-11-24T07:08:53.490Z,10
2016-11-24T07:10:03.513Z,15
2016-11-24T07:11:13.558Z,15
2016-11-24T07:12:23.283Z,15
2016-11-24T07:13:33.332Z,15
2016-11-24T07:14:43.353Z,15
2016-11-24T07:15:53.391Z,15
2016-11-24T07:17:03.745Z,15
2016-11-24T07:18:13.773Z,15
2016-11-24T07:19:23.858Z,15
2016-11-24T07:20:33.898Z,15
2016-11-24T07:21:44.248Z,15
2016-11-24T07:22:53.969Z,15
2016-11-24T07:24:03.989Z,15
2016-11-24T07:25:14.327Z,15
2016-11-24T07:26:24.663Z,15
2016-11-24T07:27:35.006Z,15
2016-11-24T07:28:45.028Z,15
2016-11-24T07:29:55.072Z,15
2016-11-24T07:31:05.099Z,15
2016-11-24T07:32:14.823Z,15
2016-11-24T07:33:25.173Z,15
2016-11-24T07:34:35.194Z,15
2016-11-24T07:35:44.935Z,15
2016-11-24T07:36:55.298Z,15
2016-11-24T07:38:05.353Z,15
2016-11-24T07:39:14.766Z,15
2016-11-24T07:40:25.120Z,15
2016-11-24T07:41:35.155Z,15
2016-11-24T07:42:44.868Z,15
2016-11-24T07:43:55.229Z,15
2016-11-24T07:45:05.587Z,15
2016-11-24T07:46:15.932Z,20
2016-11-24T07:47:25.960Z,20
2016-11-24T07:48:35.995Z,20
2016-11-24T07:49:46.362Z,20
2016-11-24T07:50:56.067Z,20
2016-11-24T07:52:05.801Z,20
2016-11-24T07:53:15.845Z,25
2016-11-24T07:54:26.195Z,25
2016-11-24T07:55:36.220Z,25
2016-11-24T07:56:46.247Z,25
2016-11-24T07:57:56.601Z,25
2016-11-24T07:59:06.995Z,25
2016-11-24T08:00:17.069Z,30
2016-11-24T08:01:27.108Z,30
2016-11-24T08:02:37.465Z,25
2016-11-24T08:03:47.788Z,30
2016-11-24T08:04:57.822Z,30
2016-11-24T08:06:07.540Z,30
2016-11-24T08:07:17.885Z,30
2016-11-24T08:08:28.215Z,30
2016-11-24T08:09:37.956Z,30
2016-11-24T08:10:47.416Z,30
2016-11-24T08:11:57.137Z,25
2016-11-24T08:13:07.503Z,25
2016-11-24T08:14:17.834Z,25
2016-11-24T08:15:27.860Z,25
2016-11-24T08:16:37.904Z,25
2016-11-24T08:17:47.950Z,25
2016-11-24T08:18:57.981Z,25
2016-11-24T08:20:07.692Z,25
2016-11-24T08:21:18.029Z,25
2016-11-24T08:22:28.357Z,30
2016-11-24T08:23:38.402Z,30
2016-11-24T08:24:48.421Z,25
2016-11-24T08:25:57.826Z,25
2016-11-24T08:27:08.182Z,30
2016-11-24T08:28:18.526Z,30
2016-11-24T08:29:28.252Z,25
2016-11-24T08:30:38.605Z,30
2016-11-24T08:31:48.653Z,30
2016-11-24T08:32:58.984Z,30
2016-11-24T08:34:09.353Z,30
2016-11-24T08:35:19.059Z,30
2016-11-24T08:36:28.805Z,30
2016-11-24T08:37:39.166Z,30
2016-11-24T08:38:49.539Z,30
2016-11-24T08:39:59.292Z,30
2016-11-24T08:41:09.637Z,35
2016-11-24T08:42:19.367Z,35
2016-11-24T08:43:29.715Z,35
2016-11-24T08:44:40.073Z,35
2016-11-24T08:45:50.458Z,35
2016-11-24T08:47:00.810Z,40
2016-11-24T08:48:10.842Z,40
2016-11-24T08:49:20.886Z,35
2016-11-24T08:50:30.607Z,35
2016-11-24T08:51:40.319Z,35
2016-11-24T08:52:50.676Z,40
2016-11-24T08:54:00.385Z,40
2016-11-24T08:55:10.113Z,40
2016-11-24T08:56:20.477Z,40
2016-11-24T08:57:30.833Z,40
2016-11-24T08:58:40.868Z,40
2016-11-24T08:59:50.909Z,45
2016-11-24T09:01:00.943Z,45
2016-11-24T09:02:11.319Z,45
2016-11-24T09:03:21.695Z,45
2016-11-24T09:04:32.077Z,45
2016-11-24T09:05:42.423Z,45
2016-11-24T09:06:52.155Z,45
2016-11-24T09:08:02.195Z,45
2016-11-24T09:09:12.553Z,40
2016-11-24T09:10:22.587Z,45
2016-11-24T09:11:32.627Z,45
2016-11-24T09:12:42.665Z,45
2016-11-24T09:13:52.703Z,45
2016-11-24T09:15:02.424Z,50
2016-11-24T09:16:12.779Z,50
2016-11-24T09:17:22.845Z,50
2016-11-24T09:18:33.240Z,45
2016-11-24T09:19:43.633Z,45
2016-11-24T09:20:53.981Z,50
2016-11-24T09:22:04.353Z,50
2016-11-24T09:23:14.388Z,45
2016-11-24T09:24:24.771Z,45
2016-11-24T09:25:35.139Z,50
2016-11-24T09:26:45.189Z,50
2016-11-24T09:27:55.226Z,50
2016-11-24T09:29:05.317Z,50
2016-11-24T09:30:15.375Z,50
2016-11-24T09:31:25.095Z,50
2016-11-24T09:32:35.439Z,50
2016-11-24T09:33:45.467Z,50
2016-11-24T09:34:55.504Z,50
2016-11-24T09:36:05.213Z,45
2016-11-24T09:37:15.585Z,45
2016-11-24T09:38:25.630Z,45
2016-11-24T09:39:35.663Z,50
2016-11-24T09:40:45.432Z,50
2016-11-24T09:41:55.476Z,55
2016-11-24T09:43:05.531Z,60
2016-11-24T09:44:15.288Z,55
2016-11-24T09:45:24.713Z,55
2016-11-24T09:46:34.972Z,55
2016-11-24T09:47:45.328Z,55
2016-11-24T09:48:55.381Z,55
2016-11-24T09:50:05.742Z,55
2016-11-24T09:51:16.126Z,50
2016-11-24T09:52:26.170Z,50
2016-11-24T09:53:36.563Z,55
2016-11-24T09:54:46.605Z,55
2016-11-24T09:55:56.344Z,55
2016-11-24T09:57:06.388Z,45
2016-11-24T09:58:16.404Z,45
2016-11-24T09:59:26.774Z,45
2016-11-24T10:00:36.835Z,45
2016-11-24T10:01:47.222Z,45
2016-11-24T10:02:57.590Z,45
2016-11-24T10:04:07.326Z,45
2016-11-24T10:05:17.384Z,45
2016-11-24T10:06:27.421Z,50
2016-11-24T10:07:37.469Z,50
2016-11-24T10:08:47.209Z,55
2016-11-24T10:09:57.247Z,55
2016-11-24T10:11:07.620Z,55
2016-11-24T10:12:18.017Z,50
2016-11-24T10:13:28.381Z,50
2016-11-24T10:14:38.432Z,50
2016-11-24T10:15:48.181Z,55
2016-11-24T10:16:57.592Z,60
2016-11-24T10:18:07.657Z,55
2016-11-24T10:19:17.397Z,50
2016-11-24T10:20:27.433Z,55
2016-11-24T10:21:37.790Z,55
2016-11-24T10:22:47.825Z,55
2016-11-24T10:23:58.161Z,60
2016-11-24T10:25:08.205Z,55
2016-11-24T10:26:18.254Z,55
2016-11-24T10:27:28.283Z,50
2016-11-24T10:28:38.321Z,45
2016-11-24T10:29:48.371Z,45
2016-11-24T10:30:58.741Z,45
2016-11-24T10:32:09.072Z,40
2016-11-24T10:33:19.101Z,35
2016-11-24T10:34:29.134Z,35
2016-11-24T10:35:39.479Z,35
2016-11-24T10:36:49.312Z,35
2016-11-24T10:37:59.640Z,35
2016-11-24T10:39:09.375Z,30
2016-11-24T10:40:19.751Z,30
2016-11-24T10:41:30.121Z,30
2016-11-24T10:42:40.177Z,35
2016-11-24T10:43:50.218Z,35
2016-11-24T10:45:00.262Z,35
2016-11-24T10:46:10.611Z,35
2016-11-24T10:47:20.980Z,35
2016-11-24T10:48:31.345Z,35
2016-11-24T10:49:41.694Z,30
2016-11-24T10:50:51.442Z,30
2016-11-24T10:52:01.499Z,35
2016-11-24T10:53:11.569Z,35
2016-11-24T10:54:21.602Z,35
2016-11-24T10:55:31.951Z,35
2016-11-24T10:56:41.981Z,35
2016-11-24T10:57:52.328Z,40
2016-11-24T11:05:23.715Z,40
2016-11-24T11:06:34.055Z,40
2016-11-24T11:07:43.770Z,40
2016-11-24T11:08:54.134Z,40
2016-11-24T11:10:04.168Z,45
2016-11-24T11:11:13.903Z,45
2016-11-24T11:12:23.982Z,50
2016-11-24T11:13:33.697Z,50
2016-11-24T11:14:44.059Z,50
2016-11-24T11:15:54.420Z,50
2016-11-24T11:17:04.136Z,45
2016-11-24T11:18:14.528Z,50
2016-11-24T11:19:24.871Z,45
2016-11-24T11:20:34.919Z,45
2016-11-24T11:21:45.272Z,45
2016-11-24T11:22:55.523Z,45
2016-11-24T11:24:05.561Z,45
2016-11-24T11:25:15.615Z,45
2016-11-24T11:26:25.658Z,45
2016-11-24T11:27:35.381Z,40
2016-11-24T11:28:45.753Z,45
2016-11-24T11:29:56.093Z,45
2016-11-24T11:31:06.143Z,45
2016-11-24T11:32:15.857Z,40
2016-11-24T11:33:25.925Z,40
2016-11-24T11:34:36.269Z,40
2016-11-24T11:35:45.997Z,40
2016-11-24T11:36:55.711Z,40
2016-11-24T11:38:05.431Z,35
2016-11-24T11:39:15.147Z,35
2016-11-24T11:40:24.888Z,35
2016-11-24T11:41:34.931Z,35
2016-11-24T11:42:44.973Z,35
2016-11-24T11:43:55.344Z,35
2016-11-24T11:45:05.376Z,35
2016-11-24T11:46:15.394Z,35
2016-11-24T11:47:25.750Z,35
2016-11-24T11:48:35.786Z,35
2016-11-24T11:49:45.821Z,35
2016-11-24T11:50:55.874Z,35
2016-11-24T11:52:05.911Z,35
2016-11-24T11:53:16.313Z,30
2016-11-24T11:54:26.339Z,30
2016-11-24T11:55:36.423Z,35
2016-11-24T11:56:46.766Z,35
2016-11-24T11:57:56.189Z,35
2016-11-24T11:59:06.546Z,40
2016-11-24T12:00:16.571Z,40
2016-11-24T12:01:26.625Z,40
2016-11-24T12:02:36.339Z,40
2016-11-24T12:03:45.764Z,35
2016-11-24T12:04:56.143Z,35
2016-11-24T12:06:06.222Z,35
2016-11-24T12:07:16.572Z,35
2016-11-24T12:08:26.915Z,35
2016-11-24T12:09:36.954Z,35
2016-11-24T12:10:47.006Z,30
2016-11-24T12:11:57.057Z,30
2016-11-24T12:13:07.437Z,30
2016-11-24T12:14:17.476Z,35
2016-11-24T12:15:27.838Z,35
2016-11-24T12:16:38.193Z,35
2016-11-24T12:17:47.901Z,30
2016-11-24T12:18:57.629Z,30
2016-11-24T12:20:07.660Z,30
2016-11-24T12:21:18.043Z,25
2016-11-24T12:22:28.068Z,25
2016-11-24T12:23:38.415Z,30
2016-11-24T12:24:48.515Z,25
2016-11-24T12:25:58.550Z,25
2016-11-24T12:27:08.891Z,25
2016-11-24T12:28:19.271Z,25
2016-11-24T12:29:29.624Z,25
2016-11-24T12:30:39.025Z,20
2016-11-24T12:31:49.422Z,20
2016-11-24T12:32:59.763Z,20
2016-11-24T12:34:10.099Z,20
2016-11-24T12:35:20.133Z,25
2016-11-24T12:36:30.170Z,25
2016-11-24T12:37:40.197Z,30
2016-11-24T12:38:50.245Z,30
2016-11-24T12:40:00.605Z,30
2016-11-24T12:41:10.965Z,30
2016-11-24T12:42:20.998Z,30
2016-11-24T12:43:30.717Z,30
2016-11-24T12:44:40.757Z,30
2016-11-24T12:45:50.792Z,30
2016-11-24T12:47:00.847Z,35
2016-11-24T12:48:11.177Z,35
2016-11-24T12:49:21.543Z,35
2016-11-24T12:50:31.264Z,35
2016-11-24T12:51:41.298Z,35
2016-11-24T12:52:51.316Z,35
2016-11-24T12:54:01.360Z,35
2016-11-24T12:55:11.097Z,35
2016-11-24T12:56:21.388Z,30
2016-11-24T12:57:31.473Z,30
2016-11-24T12:58:41.571Z,30
2016-11-24T12:59:51.353Z,30
2016-11-24T13:01:01.708Z,30
2016-11-24T13:02:14.600Z,30
2016-11-24T13:03:26.734Z,30
2016-11-24T13:04:38.840Z,30
2016-11-24T13:05:51.511Z,25
2016-11-24T13:07:06.147Z,25
2016-11-24T13:08:18.809Z,25
2016-11-24T13:09:31.464Z,25
2016-11-24T13:10:43.616Z,25
2016-11-24T13:11:58.438Z,25
2016-11-24T13:13:12.157Z,20
2016-11-24T13:14:25.243Z,20
2016-11-24T13:15:37.822Z,20
2016-11-24T13:16:51.388Z,20
2016-11-24T13:18:04.888Z,15
2016-11-24T13:19:17.694Z,15
2016-11-24T13:20:31.335Z,15
2016-11-24T13:21:44.325Z,15
2016-11-24T13:22:56.907Z,15
2016-11-24T13:24:10.712Z,10
2016-11-24T13:25:23.783Z,10
2016-11-24T13:26:36.303Z,10
2016-11-24T13:27:49.551Z,10
2016-11-24T13:29:01.809Z,10
2016-11-24T13:30:13.067Z,10
2016-11-24T13:31:22.889Z,10
2016-11-24T13:32:33.286Z,10
2016-11-24T13:33:43.510Z,10
2016-11-24T13:34:54.030Z,10
2016-11-24T13:36:04.302Z,10
2016-11-24T13:37:14.435Z,10
2016-11-24T13:38:24.863Z,10
2016-11-24T13:39:35.398Z,10
2016-11-24T13:40:45.516Z,10
2016-11-24T13:41:55.604Z,10
2016-11-24T13:43:06.151Z,10
2016-11-24T13:44:16.012Z,10
2016-11-24T13:45:26.101Z,10
2016-11-24T13:46:36.576Z,10
2016-11-24T13:47:46.377Z,10
2016-11-24T13:48:56.463Z,10
2016-11-24T13:50:06.537Z,10
2016-11-24T13:51:17.011Z,10
2016-11-24T13:52:27.100Z,10
2016-11-24T13:53:37.151Z,10
2016-11-24T13:54:47.196Z,10
2016-11-24T13:55:57.231Z,5
2016-11-24T13:57:07.751Z,5
2016-11-24T13:58:17.823Z,5
2016-11-24T13:59:27.884Z,5
2016-11-24T14:00:37.778Z,10
2016-11-24T14:01:47.873Z,5
2016-11-24T14:02:57.636Z,5
2016-11-24T14:04:08.031Z,5
2016-11-24T14:05:18.400Z,5
2016-11-24T14:06:28.855Z,5
2016-11-24T14:07:38.651Z,5
2016-11-24T14:08:49.024Z,5
2016-11-24T14:09:59.132Z,5
2016-11-24T14:11:08.883Z,5
2016-11-24T14:12:18.649Z,5
2016-11-24T14:13:28.988Z,5
2016-11-24T14:14:39.373Z,5
2016-11-24T14:15:49.424Z,5
2016-11-24T14:16:59.238Z,5
2016-11-24T14:18:09.684Z,5
2016-11-24T14:19:19.801Z,5
2016-11-24T14:20:30.229Z,5
2016-11-24T14:21:40.508Z,5
2016-11-24T14:22:50.608Z,5
2016-11-24T14:24:00.678Z,5
2016-11-24T14:25:10.749Z,5
2016-11-24T14:26:20.801Z,5
2016-11-24T14:27:32.276Z,5
2016-11-24T14:28:43.356Z,5
2016-11-24T14:29:54.704Z,5
2016-11-24T14:31:07.388Z,5
2016-11-24T14:32:19.030Z,5
2016-11-24T14:33:31.061Z,5
2016-11-24T14:34:44.077Z,5
2016-11-24T14:35:55.857Z,5
2016-11-24T14:37:06.971Z,5
2016-11-24T14:38:17.490Z,5
2016-11-24T14:39:29.898Z,0
2016-11-24T14:40:43.217Z,0
2016-11-24T14:41:55.702Z,0
2016-11-24T14:43:07.723Z,0
2016-11-24T14:44:18.907Z,0
2016-11-24T14:45:30.534Z,0
2016-11-24T14:46:43.279Z,0
2016-11-24T14:47:55.857Z,0
2016-11-24T14:49:07.141Z,0
2016-11-24T14:50:18.988Z,0
2016-11-24T14:51:30.977Z,0
2016-11-24T14:52:43.729Z,0
2016-11-24T14:53:56.511Z,0
2016-11-24T14:55:09.873Z,0
2016-11-24T14:56:20.880Z,0
2016-11-24T14:57:32.404Z,0
2016-11-24T14:58:43.957Z,0
2016-11-24T14:59:56.434Z,0
2016-11-24T15:01:08.789Z,0
2016-11-24T15:02:19.407Z,0
2016-11-24T15:03:30.406Z,0
2016-11-24T15:04:42.798Z,0
2016-11-24T15:05:52.976Z,0
2016-11-24T15:07:03.026Z,0
2016-11-24T15:08:13.063Z,0
2016-11-24T15:09:23.418Z,0
2016-11-24T15:10:33.775Z,0
2016-11-24T15:11:44.155Z,0
2016-11-24T15:12:54.485Z,0
2016-11-24T15:14:04.816Z,0
2016-11-24T15:15:15.147Z,0
2016-11-24T15:16:25.218Z,0
2016-11-24T15:17:34.641Z,0
2016-11-24T15:18:44.747Z,0
2016-11-24T15:19:55.098Z,0
2016-11-24T15:21:05.440Z,0
2016-11-24T15:22:15.793Z,0
2016-11-24T15:23:26.133Z,0
2016-11-24T15:24:36.465Z,0
2016-11-24T15:25:46.229Z,0
2016-11-24T15:26:56.273Z,0
2016-11-24T15:28:06.340Z,0
2016-11-24T15:29:16.686Z,0
2016-11-24T15:30:26.705Z,0
2016-11-24T15:31:36.758Z,0
2016-11-24T15:32:46.821Z,0
2016-11-24T15:33:57.168Z,0
2016-11-24T15:35:07.228Z,0
2016-11-24T15:36:17.592Z,0
2016-11-24T15:37:27.935Z,0
2016-11-24T15:38:38.280Z,0
2016-11-24T15:39:48.637Z,0
2016-11-24T15:40:58.664Z,0
2016-11-24T15:42:09.052Z,0
2016-11-24T15:43:19.088Z,0
2016-11-24T15:44:28.803Z,0
2016-11-24T15:45:39.159Z,0
2016-11-24T15:46:49.187Z,0
2016-11-24T15:47:58.911Z,0
2016-11-24T15:49:08.621Z,0
2016-11-24T15:50:18.338Z,0
2016-11-24T15:51:28.367Z,0
2016-11-24T15:52:38.086Z,0
2016-11-24T15:53:48.410Z,0
2016-11-24T15:54:58.769Z,0
2016-11-24T15:56:09.104Z,0
2016-11-24T15:57:19.448Z,0
2016-11-24T15:58:29.817Z,0
2016-11-24T15:59:40.167Z,0
2016-11-24T16:00:50.199Z,0
2016-11-24T16:01:59.939Z,0
2016-11-24T16:03:09.973Z,0
2016-11-24T16:04:20.313Z,0
2016-11-24T16:05:30.041Z,0
2016-11-24T16:06:39.757Z,0
2016-11-24T16:07:49.811Z,0
2016-11-24T16:09:00.154Z,0
2016-11-24T16:10:10.168Z,0
2016-11-24T16:11:19.901Z,0
2016-11-24T16:12:29.680Z,0
2016-11-24T16:13:39.454Z,0
2016-11-24T16:14:49.477Z,0
2016-11-24T16:15:59.511Z,0
2016-11-24T16:17:09.856Z,0
2016-11-24T16:18:19.271Z,0
2016-11-24T16:19:29.622Z,0
2016-11-24T16:20:39.963Z,0
2016-11-24T16:21:50.003Z,0
2016-11-24T16:23:00.351Z,0
2016-11-24T16:24:10.076Z,0
2016-11-24T16:25:20.405Z,0
2016-11-24T16:26:30.771Z,0
2016-11-24T16:27:40.498Z,0
2016-11-24T16:28:50.230Z,0
2016-11-24T16:30:00.255Z,0
2016-11-24T16:31:10.293Z,0
2016-11-24T16:32:20.008Z,0
2016-11-24T16:33:30.337Z,0
2016-11-24T16:34:40.372Z,0
2016-11-24T16:35:50.099Z,0
2016-11-24T16:37:00.438Z,0
2016-11-24T16:38:10.155Z,0
2016-11-24T16:39:20.498Z,0
2016-11-24T16:40:30.853Z,0
2016-11-24T16:41:40.587Z,0
2016-11-24T16:42:50.624Z,0
2016-11-24T16:44:00.650Z,0
2016-11-24T16:45:10.668Z,0
2016-11-24T16:46:20.709Z,0
2016-11-24T16:47:30.755Z,0
2016-11-24T16:48:41.100Z,0
2016-11-24T16:49:51.443Z,0
2016-11-24T16:51:01.495Z,0
2016-11-24T16:52:11.837Z,0
2016-11-24T16:53:22.213Z,0
2016-11-24T16:54:32.569Z,0
2016-11-24T16:55:42.957Z,0
2016-11-24T16:56:52.684Z,0
2016-11-24T16:58:02.440Z,0
2016-11-24T16:59:12.476Z,0
2016-11-24T17:00:22.218Z,0
2016-11-24T17:01:31.945Z,0
2016-11-24T17:02:41.991Z,0
2016-11-24T17:03:52.045Z,0
2016-11-24T17:05:01.764Z,0
2016-11-24T17:06:12.096Z,0
2016-11-24T17:07:22.139Z,0
2016-11-24T17:08:32.208Z,0
2016-11-24T17:09:42.548Z,0
2016-11-24T17:10:52.292Z,0
2016-11-24T17:12:02.325Z,0
2016-11-24T17:13:12.355Z,0
2016-11-24T17:14:22.087Z,0
2016-11-24T17:15:32.433Z,0
2016-11-24T17:16:42.461Z,0
2016-11-24T17:17:52.524Z,0
2016-11-24T17:19:02.247Z,0
2016-11-24T17:20:12.284Z,0
2016-11-24T17:21:22.302Z,0
2016-11-24T17:22:32.334Z,0
2016-11-24T17:23:42.669Z,0
2016-11-24T17:24:53.027Z,0
2016-11-24T17:26:03.393Z,0
2016-11-24T17:27:13.798Z,0
2016-11-24T17:28:23.838Z,0
2016-11-24T17:29:34.196Z,0
2016-11-24T17:30:44.529Z,0
2016-11-24T17:31:54.248Z,0
2016-11-24T17:33:04.289Z,0
2016-11-24T17:34:14.661Z,0
2016-11-24T17:35:25.021Z,0
2016-11-24T17:36:34.943Z,0
2016-11-24T17:37:45.281Z,0
2016-11-24T17:38:55.310Z,0
2016-11-24T17:40:05.335Z,0